sensor_id;sensor_type;location;lat;lon;timestamp;pressure;altitude;pressure_sealevel;temperature;humidity
79376;BME280;68846;53.150;18.136;2023-05-19T00:01:58;102377.33;;;10.23;53.31
79376;BME280;68846;53.150;18.136;2023-05-19T00:04:26;102364.58;;;10.16;53.54
79376;BME280;68846;53.150;18.136;2023-05-19T00:06:53;102378.00;;;10.22;53.52
79376;BME280;68846;53.150;18.136;2023-05-19T00:09:19;102374.25;;;10.20;53.32
79376;BME280;68846;53.150;18.136;2023-05-19T00:11:45;102372.89;;;10.17;53.46
79376;BME280;68846;53.150;18.136;2023-05-19T00:14:12;102362.30;;;10.12;54.02
79376;BME280;68846;53.150;18.136;2023-05-19T00:16:38;102367.01;;;10.15;53.83
79376;BME280;68846;53.150;18.136;2023-05-19T00:19:05;102367.31;;;10.14;53.73
79376;BME280;68846;53.150;18.136;2023-05-19T00:21:32;102364.73;;;10.11;53.74
79376;BME280;68846;53.150;18.136;2023-05-19T00:23:58;102365.24;;;10.11;54.12
79376;BME280;68846;53.150;18.136;2023-05-19T00:26:25;102362.89;;;10.09;54.07
79376;BME280;68846;53.150;18.136;2023-05-19T00:29:00;102361.36;;;10.06;54.01
79376;BME280;68846;53.150;18.136;2023-05-19T00:31:26;102358.40;;;9.98;54.30
79376;BME280;68846;53.150;18.136;2023-05-19T00:33:54;102353.27;;;9.93;54.56
79376;BME280;68846;53.150;18.136;2023-05-19T00:36:20;102345.83;;;9.92;54.63
79376;BME280;68846;53.150;18.136;2023-05-19T00:38:48;102349.39;;;9.97;54.62
79376;BME280;68846;53.150;18.136;2023-05-19T00:41:17;102349.91;;;9.97;55.00
79376;BME280;68846;53.150;18.136;2023-05-19T00:43:44;102352.05;;;9.93;54.96
79376;BME280;68846;53.150;18.136;2023-05-19T00:46:10;102351.52;;;9.89;54.88
79376;BME280;68846;53.150;18.136;2023-05-19T00:48:36;102352.84;;;9.87;54.92
79376;BME280;68846;53.150;18.136;2023-05-19T00:51:03;102354.33;;;9.84;55.04
79376;BME280;68846;53.150;18.136;2023-05-19T00:53:32;102355.26;;;9.85;55.16
79376;BME280;68846;53.150;18.136;2023-05-19T00:55:59;102353.56;;;9.87;55.19
79376;BME280;68846;53.150;18.136;2023-05-19T00:58:27;102339.69;;;9.75;55.24
79376;BME280;68846;53.150;18.136;2023-05-19T01:00:59;102360.20;;;9.86;55.06
79376;BME280;68846;53.150;18.136;2023-05-19T01:03:30;102361.66;;;9.88;55.27
79376;BME280;68846;53.150;18.136;2023-05-19T01:05:57;102359.41;;;9.89;54.97
79376;BME280;68846;53.150;18.136;2023-05-19T01:08:27;102351.08;;;9.82;55.23
79376;BME280;68846;53.150;18.136;2023-05-19T01:10:54;102362.90;;;9.88;55.23
79376;BME280;68846;53.150;18.136;2023-05-19T01:13:20;102360.38;;;9.86;55.40
79376;BME280;68846;53.150;18.136;2023-05-19T01:15:58;102360.53;;;9.81;55.42
79376;BME280;68846;53.150;18.136;2023-05-19T01:25:47;102337.08;;;9.54;55.29
79376;BME280;68846;53.150;18.136;2023-05-19T01:30:25;102355.64;;;9.61;55.82
79376;BME280;68846;53.150;18.136;2023-05-19T01:32:57;102357.85;;;9.59;55.57
79376;BME280;68846;53.150;18.136;2023-05-19T01:35:24;102360.81;;;9.58;55.72
79376;BME280;68846;53.150;18.136;2023-05-19T01:37:55;102355.36;;;9.59;55.83
79376;BME280;68846;53.150;18.136;2023-05-19T01:40:23;102345.70;;;9.54;55.88
79376;BME280;68846;53.150;18.136;2023-05-19T01:42:51;102360.33;;;9.59;56.00
79376;BME280;68846;53.150;18.136;2023-05-19T01:45:18;102353.86;;;9.56;56.10
79376;BME280;68846;53.150;18.136;2023-05-19T01:47:50;102357.36;;;9.59;55.88
79376;BME280;68846;53.150;18.136;2023-05-19T01:50:18;102353.70;;;9.60;56.01
79376;BME280;68846;53.150;18.136;2023-05-19T01:52:44;102358.27;;;9.60;56.06
79376;BME280;68846;53.150;18.136;2023-05-19T01:55:11;102341.63;;;9.53;56.32
79376;BME280;68846;53.150;18.136;2023-05-19T01:58:01;102352.47;;;9.60;56.16
79376;BME280;68846;53.150;18.136;2023-05-19T02:00:50;102353.07;;;9.58;56.09
79376;BME280;68846;53.150;18.136;2023-05-19T02:03:28;102357.39;;;9.56;56.21
79376;BME280;68846;53.150;18.136;2023-05-19T02:08:56;102346.52;;;9.57;56.04
79376;BME280;68846;53.150;18.136;2023-05-19T02:14:05;102350.14;;;9.59;56.17
79376;BME280;68846;53.150;18.136;2023-05-19T02:16:33;102347.19;;;9.56;56.29
79376;BME280;68846;53.150;18.136;2023-05-19T02:19:01;102352.97;;;9.55;56.14
79376;BME280;68846;53.150;18.136;2023-05-19T02:21:27;102351.36;;;9.54;56.48
79376;BME280;68846;53.150;18.136;2023-05-19T02:23:54;102352.17;;;9.53;56.22
79376;BME280;68846;53.150;18.136;2023-05-19T02:26:21;102353.41;;;9.54;56.39
79376;BME280;68846;53.150;18.136;2023-05-19T02:28:47;102350.81;;;9.50;56.38
79376;BME280;68846;53.150;18.136;2023-05-19T02:31:14;102340.86;;;9.43;56.62
79376;BME280;68846;53.150;18.136;2023-05-19T02:33:40;102351.10;;;9.49;56.55
79376;BME280;68846;53.150;18.136;2023-05-19T02:36:08;102352.69;;;9.49;56.62
79376;BME280;68846;53.150;18.136;2023-05-19T02:38:34;102348.30;;;9.49;56.52
79376;BME280;68846;53.150;18.136;2023-05-19T02:41:01;102346.27;;;9.51;56.66
79376;BME280;68846;53.150;18.136;2023-05-19T02:43:27;102333.21;;;9.46;56.58
79376;BME280;68846;53.150;18.136;2023-05-19T02:45:55;102342.15;;;9.54;56.80
79376;BME280;68846;53.150;18.136;2023-05-19T02:48:21;102331.99;;;9.50;56.73
79376;BME280;68846;53.150;18.136;2023-05-19T02:50:47;102335.77;;;9.56;56.67
79376;BME280;68846;53.150;18.136;2023-05-19T02:53:13;102319.70;;;9.46;56.88
79376;BME280;68846;53.150;18.136;2023-05-19T02:55:39;102316.54;;;9.46;56.64
79376;BME280;68846;53.150;18.136;2023-05-19T02:58:07;102335.81;;;9.58;56.71
79376;BME280;68846;53.150;18.136;2023-05-19T03:00:33;102333.37;;;9.58;56.68
79376;BME280;68846;53.150;18.136;2023-05-19T03:03:00;102336.27;;;9.60;57.30
79376;BME280;68846;53.150;18.136;2023-05-19T03:05:27;102336.89;;;9.62;56.77
79376;BME280;68846;53.150;18.136;2023-05-19T03:07:55;102343.27;;;9.64;57.14
79376;BME280;68846;53.150;18.136;2023-05-19T03:10:45;102328.26;;;9.53;57.09
79376;BME280;68846;53.150;18.136;2023-05-19T03:13:11;102347.60;;;9.66;57.00
79376;BME280;68846;53.150;18.136;2023-05-19T03:15:38;102348.85;;;9.66;56.87
79376;BME280;68846;53.150;18.136;2023-05-19T03:18:04;102349.33;;;9.65;56.96
79376;BME280;68846;53.150;18.136;2023-05-19T03:20:31;102349.08;;;9.63;57.07
79376;BME280;68846;53.150;18.136;2023-05-19T03:22:58;102333.81;;;9.56;57.01
79376;BME280;68846;53.150;18.136;2023-05-19T03:25:25;102336.17;;;9.58;57.26
79376;BME280;68846;53.150;18.136;2023-05-19T03:27:51;102340.95;;;9.62;57.27
79376;BME280;68846;53.150;18.136;2023-05-19T03:30:17;102339.39;;;9.63;57.41
79376;BME280;68846;53.150;18.136;2023-05-19T03:33:04;102340.31;;;9.64;57.11
79376;BME280;68846;53.150;18.136;2023-05-19T03:35:31;102332.65;;;9.62;57.20
79376;BME280;68846;53.150;18.136;2023-05-19T03:37:57;102331.71;;;9.65;57.47
79376;BME280;68846;53.150;18.136;2023-05-19T03:40:23;102336.85;;;9.74;57.08
79376;BME280;68846;53.150;18.136;2023-05-19T03:42:50;102330.10;;;9.81;57.08
79376;BME280;68846;53.150;18.136;2023-05-19T03:45:16;102330.11;;;9.82;56.99
79376;BME280;68846;53.150;18.136;2023-05-19T03:47:43;102334.12;;;9.85;57.23
79376;BME280;68846;53.150;18.136;2023-05-19T03:50:22;102323.59;;;9.81;57.07
79376;BME280;68846;53.150;18.136;2023-05-19T03:53:00;102331.56;;;9.82;56.79
79376;BME280;68846;53.150;18.136;2023-05-19T03:55:29;102337.89;;;9.87;57.06
79376;BME280;68846;53.150;18.136;2023-05-19T03:57:55;102337.01;;;9.82;56.95
79376;BME280;68846;53.150;18.136;2023-05-19T04:00:22;102347.35;;;9.90;56.95
79376;BME280;68846;53.150;18.136;2023-05-19T04:02:49;102348.46;;;9.91;56.90
79376;BME280;68846;53.150;18.136;2023-05-19T04:05:15;102346.73;;;9.92;57.08
79376;BME280;68846;53.150;18.136;2023-05-19T04:07:42;102340.34;;;9.86;57.46
79376;BME280;68846;53.150;18.136;2023-05-19T04:10:10;102356.36;;;9.91;57.40
79376;BME280;68846;53.150;18.136;2023-05-19T04:12:36;102350.23;;;9.83;57.15
79376;BME280;68846;53.150;18.136;2023-05-19T04:15:02;102356.48;;;9.90;57.60
79376;BME280;68846;53.150;18.136;2023-05-19T04:17:30;102359.10;;;9.89;57.58
79376;BME280;68846;53.150;18.136;2023-05-19T04:19:56;102357.75;;;9.90;57.86
79376;BME280;68846;53.150;18.136;2023-05-19T04:22:22;102358.27;;;9.90;57.81
79376;BME280;68846;53.150;18.136;2023-05-19T04:24:48;102357.98;;;9.88;57.94
79376;BME280;68846;53.150;18.136;2023-05-19T04:27:16;102365.84;;;9.86;57.85
79376;BME280;68846;53.150;18.136;2023-05-19T04:29:43;102363.69;;;9.85;57.80
79376;BME280;68846;53.150;18.136;2023-05-19T04:32:11;102366.23;;;9.83;57.85
79376;BME280;68846;53.150;18.136;2023-05-19T04:34:42;102344.96;;;9.70;57.99
79376;BME280;68846;53.150;18.136;2023-05-19T04:37:11;102347.27;;;9.71;58.10
79376;BME280;68846;53.150;18.136;2023-05-19T04:39:42;102371.17;;;9.79;58.22
79376;BME280;68846;53.150;18.136;2023-05-19T04:42:10;102370.23;;;9.77;58.10
79376;BME280;68846;53.150;18.136;2023-05-19T04:44:37;102371.92;;;9.80;58.18
79376;BME280;68846;53.150;18.136;2023-05-19T04:47:06;102358.91;;;9.76;58.10
79376;BME280;68846;53.150;18.136;2023-05-19T04:49:36;102372.45;;;9.84;58.25
79376;BME280;68846;53.150;18.136;2023-05-19T04:52:06;102371.02;;;9.88;58.20
79376;BME280;68846;53.150;18.136;2023-05-19T04:54:36;102367.60;;;9.95;57.94
79376;BME280;68846;53.150;18.136;2023-05-19T04:57:03;102364.60;;;9.99;58.17
79376;BME280;68846;53.150;18.136;2023-05-19T04:59:31;102366.90;;;10.04;57.92
79376;BME280;68846;53.150;18.136;2023-05-19T05:01:57;102368.39;;;10.10;57.67
79376;BME280;68846;53.150;18.136;2023-05-19T05:04:24;102369.62;;;10.14;57.51
79376;BME280;68846;53.150;18.136;2023-05-19T05:06:50;102375.65;;;10.20;57.09
79376;BME280;68846;53.150;18.136;2023-05-19T05:09:17;102374.15;;;10.27;57.30
79376;BME280;68846;53.150;18.136;2023-05-19T05:11:45;102379.95;;;10.35;57.12
79376;BME280;68846;53.150;18.136;2023-05-19T05:14:11;102377.64;;;10.43;57.16
79376;BME280;68846;53.150;18.136;2023-05-19T05:16:38;102380.39;;;10.51;57.10
79376;BME280;68846;53.150;18.136;2023-05-19T05:19:05;102376.59;;;10.58;56.78
79376;BME280;68846;53.150;18.136;2023-05-19T05:21:32;102376.05;;;10.62;56.76
79376;BME280;68846;53.150;18.136;2023-05-19T05:23:58;102374.27;;;10.66;56.50
79376;BME280;68846;53.150;18.136;2023-05-19T05:26:29;102371.57;;;10.64;56.66
79376;BME280;68846;53.150;18.136;2023-05-19T05:28:56;102367.77;;;10.71;56.64
79376;BME280;68846;53.150;18.136;2023-05-19T05:31:22;102375.13;;;10.85;56.47
79376;BME280;68846;53.150;18.136;2023-05-19T05:33:49;102376.83;;;10.92;55.98
79376;BME280;68846;53.150;18.136;2023-05-19T05:36:20;102379.21;;;10.95;56.21
79376;BME280;68846;53.150;18.136;2023-05-19T05:38:46;102375.20;;;11.01;56.17
79376;BME280;68846;53.150;18.136;2023-05-19T05:41:12;102370.20;;;11.04;56.35
79376;BME280;68846;53.150;18.136;2023-05-19T05:43:39;102378.25;;;11.17;55.97
79376;BME280;68846;53.150;18.136;2023-05-19T05:46:05;102381.44;;;11.23;55.74
79376;BME280;68846;53.150;18.136;2023-05-19T05:48:31;102378.67;;;11.30;55.68
79376;BME280;68846;53.150;18.136;2023-05-19T05:50:58;102376.42;;;11.35;55.60
79376;BME280;68846;53.150;18.136;2023-05-19T05:53:29;102368.99;;;11.30;55.22
79376;BME280;68846;53.150;18.136;2023-05-19T05:55:56;102379.85;;;11.38;55.32
79376;BME280;68846;53.150;18.136;2023-05-19T05:58:27;102377.52;;;11.41;55.55
79376;BME280;68846;53.150;18.136;2023-05-19T06:00:53;102377.10;;;11.45;55.28
79376;BME280;68846;53.150;18.136;2023-05-19T06:03:22;102370.47;;;11.42;55.19
79376;BME280;68846;53.150;18.136;2023-05-19T06:05:49;102366.84;;;11.44;55.24
79376;BME280;68846;53.150;18.136;2023-05-19T06:08:16;102371.38;;;11.47;55.38
79376;BME280;68846;53.150;18.136;2023-05-19T06:10:43;102385.20;;;11.55;55.38
79376;BME280;68846;53.150;18.136;2023-05-19T06:13:10;102390.56;;;11.57;55.61
79376;BME280;68846;53.150;18.136;2023-05-19T06:15:37;102383.14;;;11.52;55.46
79376;BME280;68846;53.150;18.136;2023-05-19T06:18:14;102392.15;;;11.57;55.23
79376;BME280;68846;53.150;18.136;2023-05-19T06:20:40;102388.35;;;11.54;55.35
79376;BME280;68846;53.150;18.136;2023-05-19T06:23:07;102384.69;;;11.56;55.40
79376;BME280;68846;53.150;18.136;2023-05-19T06:25:33;102387.41;;;11.57;55.58
79376;BME280;68846;53.150;18.136;2023-05-19T06:27:59;102386.66;;;11.62;55.73
79376;BME280;68846;53.150;18.136;2023-05-19T06:30:26;102380.48;;;11.66;55.53
79376;BME280;68846;53.150;18.136;2023-05-19T06:33:00;102380.66;;;11.72;55.61
79376;BME280;68846;53.150;18.136;2023-05-19T06:35:26;102382.70;;;11.75;55.58
79376;BME280;68846;53.150;18.136;2023-05-19T06:37:52;102377.47;;;11.76;55.39
79376;BME280;68846;53.150;18.136;2023-05-19T06:40:21;102380.00;;;11.83;55.27
79376;BME280;68846;53.150;18.136;2023-05-19T06:42:48;102384.41;;;11.89;55.17
79376;BME280;68846;53.150;18.136;2023-05-19T06:45:22;102385.88;;;11.90;55.02
79376;BME280;68846;53.150;18.136;2023-05-19T06:47:50;102389.42;;;11.91;55.18
79376;BME280;68846;53.150;18.136;2023-05-19T06:50:16;102391.66;;;11.94;55.38
79376;BME280;68846;53.150;18.136;2023-05-19T06:52:42;102387.98;;;12.01;55.43
79376;BME280;68846;53.150;18.136;2023-05-19T06:55:09;102386.17;;;12.10;55.49
79376;BME280;68846;53.150;18.136;2023-05-19T06:57:37;102380.67;;;12.09;55.12
79376;BME280;68846;53.150;18.136;2023-05-19T07:00:04;102394.69;;;12.17;54.89
79376;BME280;68846;53.150;18.136;2023-05-19T07:02:32;102394.35;;;12.18;54.96
79376;BME280;68846;53.150;18.136;2023-05-19T07:04:58;102393.14;;;12.24;55.20
79376;BME280;68846;53.150;18.136;2023-05-19T07:07:25;102396.12;;;12.29;55.16
79376;BME280;68846;53.150;18.136;2023-05-19T07:09:51;102395.73;;;12.34;54.92
79376;BME280;68846;53.150;18.136;2023-05-19T07:12:18;102394.77;;;12.36;54.79
79376;BME280;68846;53.150;18.136;2023-05-19T07:14:45;102397.75;;;12.36;54.77
79376;BME280;68846;53.150;18.136;2023-05-19T07:17:11;102398.98;;;12.35;54.97
79376;BME280;68846;53.150;18.136;2023-05-19T07:19:40;102399.03;;;12.37;55.11
79376;BME280;68846;53.150;18.136;2023-05-19T07:22:06;102400.33;;;12.40;55.08
79376;BME280;68846;53.150;18.136;2023-05-19T07:24:32;102392.98;;;12.36;55.20
79376;BME280;68846;53.150;18.136;2023-05-19T07:26:58;102397.27;;;12.49;55.23
79376;BME280;68846;53.150;18.136;2023-05-19T07:29:25;102395.33;;;12.54;55.04
79376;BME280;68846;53.150;18.136;2023-05-19T07:31:51;102393.98;;;12.57;55.02
79376;BME280;68846;53.150;18.136;2023-05-19T07:34:23;102387.93;;;12.62;54.97
79376;BME280;68846;53.150;18.136;2023-05-19T07:36:49;102387.66;;;12.65;54.84
79376;BME280;68846;53.150;18.136;2023-05-19T07:39:17;102377.04;;;12.64;54.82
79376;BME280;68846;53.150;18.136;2023-05-19T07:41:43;102381.69;;;12.72;54.75
79376;BME280;68846;53.150;18.136;2023-05-19T07:44:10;102388.05;;;12.72;54.54
79376;BME280;68846;53.150;18.136;2023-05-19T07:46:36;102381.10;;;12.70;54.39
79376;BME280;68846;53.150;18.136;2023-05-19T07:49:03;102395.31;;;12.78;54.43
79376;BME280;68846;53.150;18.136;2023-05-19T07:51:29;102399.37;;;12.84;54.48
79376;BME280;68846;53.150;18.136;2023-05-19T07:53:56;102394.17;;;12.88;53.93
79376;BME280;68846;53.150;18.136;2023-05-19T07:56:23;102387.27;;;12.88;54.02
79376;BME280;68846;53.150;18.136;2023-05-19T07:58:49;102388.27;;;12.92;53.91
79376;BME280;68846;53.150;18.136;2023-05-19T08:01:16;102374.17;;;12.87;53.69
79376;BME280;68846;53.150;18.136;2023-05-19T08:03:42;102383.27;;;12.90;53.77
79376;BME280;68846;53.150;18.136;2023-05-19T08:06:08;102386.14;;;12.91;53.66
79376;BME280;68846;53.150;18.136;2023-05-19T08:08:34;102387.11;;;12.95;53.86
79376;BME280;68846;53.150;18.136;2023-05-19T08:11:02;102387.25;;;13.00;54.13
79376;BME280;68846;53.150;18.136;2023-05-19T08:13:56;102389.73;;;13.12;54.18
79376;BME280;68846;53.150;18.136;2023-05-19T08:16:23;102380.42;;;13.15;54.04
79376;BME280;68846;53.150;18.136;2023-05-19T08:18:50;102381.21;;;13.18;53.69
79376;BME280;68846;53.150;18.136;2023-05-19T08:21:17;102369.99;;;13.14;53.67
79376;BME280;68846;53.150;18.136;2023-05-19T08:23:44;102383.10;;;13.21;53.91
79376;BME280;68846;53.150;18.136;2023-05-19T08:26:11;102382.07;;;13.22;53.79
79376;BME280;68846;53.150;18.136;2023-05-19T08:28:38;102380.55;;;13.20;53.54
79376;BME280;68846;53.150;18.136;2023-05-19T08:31:05;102380.28;;;13.16;53.71
79376;BME280;68846;53.150;18.136;2023-05-19T08:33:31;102378.16;;;13.16;53.83
79376;BME280;68846;53.150;18.136;2023-05-19T08:35:58;102372.75;;;13.19;53.99
79376;BME280;68846;53.150;18.136;2023-05-19T08:38:25;102369.48;;;13.22;54.08
79376;BME280;68846;53.150;18.136;2023-05-19T08:40:52;102370.69;;;13.26;54.27
79376;BME280;68846;53.150;18.136;2023-05-19T08:43:19;102373.77;;;13.30;53.71
79376;BME280;68846;53.150;18.136;2023-05-19T08:45:46;102376.13;;;13.31;53.81
79376;BME280;68846;53.150;18.136;2023-05-19T08:48:16;102375.06;;;13.38;53.77
79376;BME280;68846;53.150;18.136;2023-05-19T08:50:59;102376.02;;;13.47;53.97
79376;BME280;68846;53.150;18.136;2023-05-19T08:53:35;102368.21;;;13.53;54.06
79376;BME280;68846;53.150;18.136;2023-05-19T08:56:07;102374.48;;;13.71;53.61
79376;BME280;68846;53.150;18.136;2023-05-19T08:58:40;102373.82;;;13.79;53.47
79376;BME280;68846;53.150;18.136;2023-05-19T09:01:09;102371.33;;;13.86;53.28
79376;BME280;68846;53.150;18.136;2023-05-19T09:03:39;102380.65;;;13.91;53.28
79376;BME280;68846;53.150;18.136;2023-05-19T09:06:06;102376.23;;;13.99;53.38
79376;BME280;68846;53.150;18.136;2023-05-19T09:08:40;102360.21;;;14.03;53.48
79376;BME280;68846;53.150;18.136;2023-05-19T09:11:09;102368.84;;;14.16;53.35
79376;BME280;68846;53.150;18.136;2023-05-19T09:13:36;102369.38;;;14.25;53.25
79376;BME280;68846;53.150;18.136;2023-05-19T09:16:04;102366.06;;;14.34;53.10
79376;BME280;68846;53.150;18.136;2023-05-19T09:18:31;102357.73;;;14.41;53.26
79376;BME280;68846;53.150;18.136;2023-05-19T09:20:59;102366.23;;;14.56;53.07
79376;BME280;68846;53.150;18.136;2023-05-19T09:23:30;102361.05;;;14.63;52.69
79376;BME280;68846;53.150;18.136;2023-05-19T09:26:03;102362.45;;;14.71;52.58
79376;BME280;68846;53.150;18.136;2023-05-19T09:28:34;102359.36;;;14.76;51.81
79376;BME280;68846;53.150;18.136;2023-05-19T09:31:08;102359.30;;;14.73;52.11
79376;BME280;68846;53.150;18.136;2023-05-19T09:33:37;102361.66;;;14.76;51.87
79376;BME280;68846;53.150;18.136;2023-05-19T09:36:05;102360.98;;;14.76;51.79
79376;BME280;68846;53.150;18.136;2023-05-19T09:38:35;102359.11;;;14.72;52.06
79376;BME280;68846;53.150;18.136;2023-05-19T09:41:05;102358.28;;;14.75;52.09
79376;BME280;68846;53.150;18.136;2023-05-19T09:43:34;102359.45;;;14.81;51.87
79376;BME280;68846;53.150;18.136;2023-05-19T09:46:04;102356.77;;;14.88;52.13
79376;BME280;68846;53.150;18.136;2023-05-19T09:48:33;102359.15;;;14.92;51.84
79376;BME280;68846;53.150;18.136;2023-05-19T09:51:02;102356.38;;;14.95;52.11
79376;BME280;68846;53.150;18.136;2023-05-19T09:53:30;102359.25;;;14.98;52.11
79376;BME280;68846;53.150;18.136;2023-05-19T09:55:59;102360.89;;;14.99;51.90
79376;BME280;68846;53.150;18.136;2023-05-19T09:58:31;102364.38;;;14.96;51.87
79376;BME280;68846;53.150;18.136;2023-05-19T10:01:03;102368.10;;;14.96;52.01
79376;BME280;68846;53.150;18.136;2023-05-19T10:03:30;102371.34;;;14.99;51.76
79376;BME280;68846;53.150;18.136;2023-05-19T10:06:00;102375.05;;;14.98;52.07
79376;BME280;68846;53.150;18.136;2023-05-19T10:08:30;102372.45;;;14.99;52.08
79376;BME280;68846;53.150;18.136;2023-05-19T10:10:58;102378.12;;;15.01;51.58
79376;BME280;68846;53.150;18.136;2023-05-19T10:13:28;102375.11;;;15.00;51.63
79376;BME280;68846;53.150;18.136;2023-05-19T10:15:57;102370.14;;;15.00;51.54
79376;BME280;68846;53.150;18.136;2023-05-19T10:18:25;102366.45;;;15.03;51.40
79376;BME280;68846;53.150;18.136;2023-05-19T10:20:53;102363.20;;;15.08;51.45
79376;BME280;68846;53.150;18.136;2023-05-19T10:23:24;102360.86;;;15.17;51.69
79376;BME280;68846;53.150;18.136;2023-05-19T10:25:55;102364.65;;;15.30;51.85
79376;BME280;68846;53.150;18.136;2023-05-19T10:28:30;102364.02;;;15.44;51.76
79376;BME280;68846;53.150;18.136;2023-05-19T10:31:00;102365.87;;;15.58;51.99
79376;BME280;68846;53.150;18.136;2023-05-19T10:33:59;102362.34;;;15.68;51.24
79376;BME280;68846;53.150;18.136;2023-05-19T10:39:38;102360.18;;;15.77;51.25
79376;BME280;68846;53.150;18.136;2023-05-19T10:47:10;102359.87;;;15.91;52.28
79376;BME280;68846;53.150;18.136;2023-05-19T10:49:38;102353.59;;;15.88;53.17
79376;BME280;68846;53.150;18.136;2023-05-19T10:52:26;102365.86;;;16.00;54.27
79376;BME280;68846;53.150;18.136;2023-05-19T10:54:55;102368.59;;;16.04;54.82
79376;BME280;68846;53.150;18.136;2023-05-19T10:57:27;102370.70;;;16.02;54.39
79376;BME280;68846;53.150;18.136;2023-05-19T10:59:57;102365.95;;;15.94;54.56
79376;BME280;68846;53.150;18.136;2023-05-19T11:02:36;102371.58;;;15.90;54.95
79376;BME280;68846;53.150;18.136;2023-05-19T11:05:10;102376.80;;;15.84;54.94
79376;BME280;68846;53.150;18.136;2023-05-19T11:07:43;102387.69;;;15.75;54.98
79376;BME280;68846;53.150;18.136;2023-05-19T11:10:23;102385.61;;;15.68;55.62
79376;BME280;68846;53.150;18.136;2023-05-19T11:12:51;102382.96;;;15.61;55.88
79376;BME280;68846;53.150;18.136;2023-05-19T11:15:23;102385.84;;;15.52;55.67
79376;BME280;68846;53.150;18.136;2023-05-19T11:17:51;102391.17;;;15.43;56.33
79376;BME280;68846;53.150;18.136;2023-05-19T11:20:28;102376.35;;;15.29;56.70
79376;BME280;68846;53.150;18.136;2023-05-19T11:23:07;102376.46;;;15.16;57.26
79376;BME280;68846;53.150;18.136;2023-05-19T11:28:15;102386.18;;;15.23;58.28
79376;BME280;68846;53.150;18.136;2023-05-19T11:30:43;102381.13;;;15.28;58.52
79376;BME280;68846;53.150;18.136;2023-05-19T11:33:11;102382.61;;;15.32;58.72
79376;BME280;68846;53.150;18.136;2023-05-19T11:35:40;102384.59;;;15.33;59.34
79376;BME280;68846;53.150;18.136;2023-05-19T11:38:09;102389.20;;;15.33;59.75
79376;BME280;68846;53.150;18.136;2023-05-19T11:40:36;102387.34;;;15.28;59.77
79376;BME280;68846;53.150;18.136;2023-05-19T11:43:04;102386.27;;;15.18;59.47
79376;BME280;68846;53.150;18.136;2023-05-19T11:45:31;102384.92;;;15.13;59.90
79376;BME280;68846;53.150;18.136;2023-05-19T11:47:58;102378.77;;;15.07;59.48
79376;BME280;68846;53.150;18.136;2023-05-19T11:50:25;102379.00;;;15.00;59.63
79376;BME280;68846;53.150;18.136;2023-05-19T11:52:53;102379.05;;;14.94;59.13
79376;BME280;68846;53.150;18.136;2023-05-19T11:55:21;102365.85;;;14.81;59.05
79376;BME280;68846;53.150;18.136;2023-05-19T12:00:23;102368.96;;;14.77;59.15
79376;BME280;68846;53.150;18.136;2023-05-19T12:02:51;102368.29;;;14.70;59.27
79376;BME280;68846;53.150;18.136;2023-05-19T12:05:22;102369.70;;;14.62;58.55
79376;BME280;68846;53.150;18.136;2023-05-19T12:07:51;102368.16;;;14.56;58.75
79376;BME280;68846;53.150;18.136;2023-05-19T12:10:37;102370.08;;;14.54;58.48
79376;BME280;68846;53.150;18.136;2023-05-19T12:13:05;102368.95;;;14.52;59.26
79376;BME280;68846;53.150;18.136;2023-05-19T12:15:35;102370.20;;;14.52;59.64
79376;BME280;68846;53.150;18.136;2023-05-19T12:18:02;102370.43;;;14.54;59.74
79376;BME280;68846;53.150;18.136;2023-05-19T12:20:29;102365.59;;;14.60;59.90
79376;BME280;68846;53.150;18.136;2023-05-19T12:22:59;102366.80;;;14.67;60.69
79376;BME280;68846;53.150;18.136;2023-05-19T12:25:30;102356.75;;;14.70;60.42
79376;BME280;68846;53.150;18.136;2023-05-19T12:27:58;102370.42;;;14.80;60.29
79376;BME280;68846;53.150;18.136;2023-05-19T12:30:27;102369.27;;;14.83;60.40
79376;BME280;68846;53.150;18.136;2023-05-19T12:32:55;102370.64;;;14.81;60.36
79376;BME280;68846;53.150;18.136;2023-05-19T12:35:31;102371.45;;;14.78;60.84
79376;BME280;68846;53.150;18.136;2023-05-19T12:38:03;102371.02;;;14.74;61.11
79376;BME280;68846;53.150;18.136;2023-05-19T12:40:32;102364.97;;;14.64;61.37
79376;BME280;68846;53.150;18.136;2023-05-19T12:42:59;102368.60;;;14.60;61.55
79376;BME280;68846;53.150;18.136;2023-05-19T12:45:26;102368.14;;;14.55;61.61
79376;BME280;68846;53.150;18.136;2023-05-19T12:47:54;102366.48;;;14.45;61.22
79376;BME280;68846;53.150;18.136;2023-05-19T12:50:28;102369.38;;;14.40;61.38
79376;BME280;68846;53.150;18.136;2023-05-19T12:52:56;102368.36;;;14.34;61.46
79376;BME280;68846;53.150;18.136;2023-05-19T12:55:25;102363.86;;;14.31;61.75
79376;BME280;68846;53.150;18.136;2023-05-19T12:57:53;102355.35;;;14.22;62.24
79376;BME280;68846;53.150;18.136;2023-05-19T13:00:24;102362.48;;;14.25;62.04
79376;BME280;68846;53.150;18.136;2023-05-19T13:03:04;102363.69;;;14.23;62.44
79376;BME280;68846;53.150;18.136;2023-05-19T13:05:37;102345.72;;;14.12;62.88
79376;BME280;68846;53.150;18.136;2023-05-19T13:08:18;102355.42;;;14.11;62.96
79376;BME280;68846;53.150;18.136;2023-05-19T13:10:47;102342.89;;;13.97;63.26
79376;BME280;68846;53.150;18.136;2023-05-19T13:13:16;102352.38;;;14.02;64.23
79376;BME280;68846;53.150;18.136;2023-05-19T13:15:44;102349.66;;;13.98;64.28
79376;BME280;68846;53.150;18.136;2023-05-19T13:18:12;102347.88;;;13.90;64.71
79376;BME280;68846;53.150;18.136;2023-05-19T13:20:41;102348.38;;;13.90;64.96